createdAt,value
2022-08-11T00:00:36.714Z,96471.84
2022-08-11T00:03:09.709Z,96471.00
2022-08-11T00:05:46.262Z,96468.38
2022-08-11T00:08:22.059Z,96464.91
2022-08-11T00:10:58.961Z,96461.84
2022-08-11T00:13:53.260Z,96466.78
2022-08-11T00:16:25.521Z,96465.34
2022-08-11T00:18:54.292Z,96465.97
2022-08-11T00:21:54.723Z,96458.41
2022-08-11T00:24:10.801Z,96460.25
2022-08-11T00:26:37.383Z,96464.97
2022-08-11T00:29:11.296Z,96460.25
2022-08-11T00:31:43.548Z,96465.59
2022-08-11T00:34:12.380Z,96456.59
2022-08-11T00:36:50.164Z,96464.97
2022-08-11T00:39:19.133Z,96467.66
2022-08-11T00:42:02.444Z,96459.28
2022-08-11T00:44:47.069Z,96463.78
2022-08-11T00:47:31.904Z,96458.88
2022-08-11T00:50:04.234Z,96464.63
2022-08-11T00:52:53.862Z,96462.97
2022-08-11T00:55:47.222Z,96464.81
2022-08-11T00:58:40.571Z,96456.44
2022-08-11T01:01:21.006Z,96461.56
2022-08-11T01:04:18.220Z,96463.59
2022-08-11T01:06:50.517Z,96466.66
2022-08-11T01:09:55.279Z,96470.31
2022-08-11T01:12:28.165Z,96452.34
2022-08-11T01:15:25.747Z,96466.69
2022-08-11T01:18:29.744Z,96462.97
2022-08-11T01:21:24.427Z,96457.47
2022-08-11T01:24:43.665Z,96458.06
2022-08-11T01:27:20.490Z,96457.44
2022-08-11T01:30:11.918Z,96453.75
2022-08-11T01:33:15.995Z,96457.66
2022-08-11T01:35:42.462Z,96451.53
2022-08-11T01:38:21.792Z,96451.09
2022-08-11T01:40:53.919Z,96444.97
2022-08-11T01:43:45.044Z,96446.22
2022-08-11T01:47:08.769Z,96446.19
2022-08-11T01:50:08.780Z,96444.97
2022-08-11T01:52:55.481Z,96444.97
2022-08-11T01:55:30.333Z,96438.41
2022-08-11T01:58:14.018Z,96440.03
2022-08-11T02:00:52.723Z,96444.94
2022-08-11T02:03:27.485Z,96440.44
2022-08-11T02:06:02.846Z,96439.19
2022-08-11T02:08:50.406Z,96435.97
2022-08-11T02:11:35.768Z,96436.56
2022-08-11T02:14:39.656Z,96439.19
2022-08-11T02:17:38.943Z,96441.44
2022-08-11T02:20:43.213Z,96437.56
2022-08-11T02:24:06.112Z,96437.56
2022-08-11T02:26:23.392Z,96436.72
2022-08-11T02:29:26.098Z,96437.75
2022-08-11T02:32:28.893Z,96435.47
2022-08-11T02:35:03.701Z,96428.13
2022-08-11T02:37:33.273Z,96439.16
2022-08-11T02:40:00.537Z,96428.53
2022-08-11T02:42:53.106Z,96438.72
2022-08-11T02:45:32.482Z,96438.31
2022-08-11T02:48:56.671Z,96434.19
2022-08-11T02:51:38.080Z,96434.59
2022-08-11T02:54:14.089Z,96440.28
2022-08-11T02:57:05.433Z,96440.69
2022-08-11T02:59:53.399Z,96441.50
2022-08-11T03:02:32.054Z,96432.16
2022-08-11T03:04:58.525Z,96437.47
2022-08-11T03:07:31.766Z,96439.16
2022-08-11T03:10:22.356Z,96437.47
2022-08-11T03:13:32.253Z,96444.00
2022-08-11T03:16:27.963Z,96446.81
2022-08-11T03:19:22.066Z,96438.63
2022-08-11T03:22:03.213Z,96449.25
2022-08-11T03:24:41.842Z,96457.00
2022-08-11T03:27:38.912Z,96446.00
2022-08-11T03:30:17.792Z,96441.91
2022-08-11T03:33:28.950Z,96443.38
2022-08-11T03:36:28.230Z,96444.78
2022-08-11T03:39:03.907Z,96444.38
2022-08-11T03:42:01.282Z,96448.66
2022-08-11T03:44:50.407Z,96453.13
2022-08-11T03:47:22.865Z,96442.50
2022-08-11T03:50:10.473Z,96452.28
2022-08-11T03:53:28.333Z,96454.94
2022-08-11T03:56:33.818Z,96447.81
2022-08-11T03:59:14.809Z,96443.94
2022-08-11T04:01:56.598Z,96450.06
2022-08-11T04:04:50.588Z,96440.28
2022-08-11T04:07:55.930Z,96438.06
2022-08-11T04:10:47.477Z,96442.34
2022-08-11T04:13:19.914Z,96441.19
2022-08-11T04:16:11.085Z,96445.06
2022-08-11T04:19:17.193Z,96436.72
2022-08-11T04:21:56.260Z,96445.31
2022-08-11T04:25:00.449Z,96452.88
2022-08-11T04:28:04.547Z,96447.41
2022-08-11T04:31:10.112Z,96445.34
2022-08-11T04:34:01.590Z,96444.75
2022-08-11T04:37:12.495Z,96448.25
2022-08-11T04:40:12.645Z,96442.72
2022-08-11T04:43:22.833Z,96438.66
2022-08-11T04:46:01.494Z,96435.16
2022-08-11T04:49:05.366Z,96437.03
2022-08-11T04:52:23.832Z,96442.94
2022-08-11T04:55:23.840Z,96444.59
2022-08-11T04:58:20.959Z,96445.84
2022-08-11T05:01:41.511Z,96438.84
2022-08-11T05:04:44.818Z,96444.97
2022-08-11T05:07:49.606Z,96449.50
2022-08-11T05:10:16.092Z,96454.78
2022-08-11T05:13:22.552Z,96454.78
2022-08-11T05:16:16.771Z,96438.81
2022-08-11T05:19:08.885Z,96440.44
2022-08-11T05:21:57.313Z,96443.69
2022-08-11T05:24:55.806Z,96442.63
2022-08-11T05:27:49.342Z,96444.03
2022-08-11T05:30:35.275Z,96446.47
2022-08-11T05:33:40.282Z,96440.09
2022-08-11T05:36:18.229Z,96439.41
2022-08-11T05:39:15.136Z,96436.72
2022-08-11T05:42:00.689Z,96438.13
2022-08-11T05:44:47.662Z,96437.84
2022-08-11T05:47:45.989Z,96434.75
2022-08-11T05:50:34.426Z,96430.03
2022-08-11T05:53:27.750Z,96429.31
2022-08-11T05:56:16.045Z,96424.34
2022-08-11T05:58:46.180Z,96429.56
2022-08-11T06:01:25.848Z,96428.03
2022-08-11T06:04:14.488Z,96423.63
2022-08-11T06:06:51.163Z,96427.59
2022-08-11T06:09:33.895Z,96430.34
2022-08-11T06:12:17.187Z,96430.09
2022-08-11T06:14:46.189Z,96430.16
2022-08-11T06:17:17.091Z,96428.81
2022-08-11T06:19:48.498Z,96430.81
2022-08-11T06:22:21.762Z,96429.31
2022-08-11T06:24:57.043Z,96429.69
2022-08-11T06:27:26.642Z,96424.19
2022-08-11T06:29:55.819Z,96424.81
2022-08-11T06:32:26.311Z,96414.41
2022-08-11T06:35:25.479Z,96423.63
2022-08-11T06:38:16.190Z,96419.16
2022-08-11T06:41:08.552Z,96419.63
2022-08-11T06:43:55.994Z,96431.38
2022-08-11T06:46:48.097Z,96426.50
2022-08-11T06:49:35.056Z,96424.28
2022-08-11T06:52:19.722Z,96427.84
2022-08-11T06:55:06.125Z,96430.28
2022-08-11T06:57:56.740Z,96430.66
2022-08-11T07:00:30.742Z,96429.88
2022-08-11T07:03:03.271Z,96431.38
2022-08-11T07:05:45.527Z,96427.06
2022-08-11T07:08:52.595Z,96421.22
2022-08-11T07:11:53.043Z,96422.56
2022-08-11T07:14:46.855Z,96417.06
2022-08-11T07:17:36.290Z,96421.78
2022-08-11T07:20:25.592Z,96414.41
2022-08-11T07:23:16.859Z,96427.47
2022-08-11T07:26:05.559Z,96415.47
2022-08-11T07:28:53.153Z,96408.13
2022-08-11T07:32:03.514Z,96419.59
2022-08-11T07:34:36.824Z,96422.94
2022-08-11T07:37:13.686Z,96431.06
2022-08-11T07:39:44.350Z,96433.25
2022-08-11T07:42:13.477Z,96434.69
2022-08-11T07:44:59.758Z,96431.53
2022-08-11T07:47:47.427Z,96428.44
2022-08-11T07:50:33.218Z,96425.59
2022-08-11T07:53:01.296Z,96421.69
2022-08-11T07:55:49.082Z,96416.94
2022-08-11T07:58:44.897Z,96416.44
2022-08-11T08:01:42.765Z,96415.94
2022-08-11T08:04:30.395Z,96411.53
2022-08-11T08:07:17.437Z,96419.84
2022-08-11T08:10:03.575Z,96414.66
2022-08-11T08:12:49.858Z,96406.97
2022-08-11T08:15:36.506Z,96414.91
2022-08-11T08:18:10.070Z,96400.72
2022-08-11T08:20:52.589Z,96417.44
2022-08-11T08:23:19.209Z,96411.88
2022-08-11T08:25:46.118Z,96408.16
2022-08-11T08:28:12.912Z,96408.94
2022-08-11T08:30:39.560Z,96406.00
2022-08-11T08:33:06.608Z,96391.53
2022-08-11T08:35:35.609Z,96391.81
2022-08-11T08:38:21.244Z,96402.06
2022-08-11T08:40:56.010Z,96400.72
2022-08-11T08:43:24.271Z,96398.34
2022-08-11T08:45:56.984Z,96395.94
2022-08-11T08:48:25.892Z,96398.56
2022-08-11T08:51:27.710Z,96398.00
2022-08-11T08:54:17.999Z,96394.25
2022-08-11T08:56:46.583Z,96383.56
2022-08-11T08:59:15.834Z,96395.66
2022-08-11T09:02:05.804Z,96385.22
2022-08-11T09:04:35.480Z,96384.19
2022-08-11T09:07:12.645Z,96384.50
2022-08-11T09:09:48.328Z,96385.31
2022-08-11T09:12:17.008Z,96386.75
2022-08-11T09:15:05.491Z,96395.19
2022-08-11T09:17:37.187Z,96385.50
2022-08-11T09:20:25.099Z,96388.97
2022-08-11T09:26:21.420Z,96376.38
2022-08-11T09:28:50.131Z,96376.44
2022-08-11T09:31:17.486Z,96376.75
2022-08-11T09:33:44.861Z,96378.03
2022-08-11T09:36:32.881Z,96375.91
2022-08-11T09:39:21.544Z,96378.59
2022-08-11T09:42:01.098Z,96361.97
2022-08-11T09:44:49.377Z,96364.47
2022-08-11T09:47:29.780Z,96362.91
2022-08-11T09:50:02.891Z,96361.06
2022-08-11T09:52:57.124Z,96361.69
2022-08-11T09:55:27.969Z,96365.22
2022-08-11T09:58:42.971Z,96367.66
2022-08-11T10:01:02.625Z,96378.41
2022-08-11T10:03:31.312Z,96378.59
2022-08-11T10:06:34.376Z,96378.75
2022-08-11T10:09:05.339Z,96377.75
2022-08-11T10:11:34.937Z,96381.06
2022-08-11T10:14:34.041Z,96373.78
2022-08-11T10:17:06.236Z,96372.72
2022-08-11T10:19:34.533Z,96362.25
2022-08-11T10:22:20.558Z,96364.75
2022-08-11T10:25:06.395Z,96365.38
2022-08-11T10:28:17.015Z,96360.31
2022-08-11T10:30:38.843Z,96356.34
2022-08-11T10:33:37.201Z,96356.63
2022-08-11T10:36:15.966Z,96360.38
2022-08-11T10:38:45.892Z,96346.69
2022-08-11T10:41:32.009Z,96345.88
2022-08-11T10:44:03.126Z,96340.59
2022-08-11T10:46:50.192Z,96321.22
2022-08-11T10:49:21.572Z,96337.34
2022-08-11T10:52:06.902Z,96323.34
2022-08-11T10:54:53.322Z,96321.72
2022-08-11T10:57:41.631Z,96315.31
2022-08-11T11:00:14.344Z,96296.00
2022-08-11T11:02:45.256Z,96300.34
2022-08-11T11:05:32.893Z,96299.31
2022-08-11T11:08:31.672Z,96292.69
2022-08-11T11:10:58.870Z,96293.00
2022-08-11T11:13:53.247Z,96298.22
2022-08-11T11:16:45.428Z,96306.84
2022-08-11T11:19:13.615Z,96302.53
2022-08-11T11:21:42.995Z,96293.66
2022-08-11T11:24:25.226Z,96292.84
2022-08-11T11:26:55.881Z,96284.81
2022-08-11T11:29:34.281Z,96285.13
2022-08-11T11:32:03.550Z,96282.47
2022-08-11T11:35:05.614Z,96277.88
2022-08-11T11:37:36.799Z,96292.69
2022-08-11T11:40:12.569Z,96283.28
2022-08-11T11:42:41.587Z,96290.50
2022-08-11T11:45:22.709Z,96285.13
2022-08-11T11:47:53.869Z,96285.66
2022-08-11T11:50:34.488Z,96284.56
2022-08-11T11:53:04.772Z,96287.53
2022-08-11T11:55:31.918Z,96284.00
2022-08-11T11:58:22.398Z,96286.22
2022-08-11T12:01:09.346Z,96287.84
2022-08-11T12:03:37.934Z,96300.28
2022-08-11T12:06:05.236Z,96321.84
2022-08-11T12:08:36.804Z,96362.03
2022-08-11T12:11:25.396Z,96359.25
2022-08-11T12:13:53.212Z,96361.41
2022-08-11T12:16:34.932Z,96363.84
2022-08-11T12:19:11.777Z,96369.28
2022-08-11T12:22:00.717Z,96369.50
2022-08-11T12:24:48.002Z,96363.06
2022-08-11T12:27:24.117Z,96372.38
2022-08-11T12:29:56.184Z,96370.75
2022-08-11T12:32:26.032Z,96366.19
2022-08-11T12:34:53.743Z,96375.13
2022-08-11T12:37:24.651Z,96373.97
2022-08-11T12:40:43.054Z,96379.50
2022-08-11T12:43:37.218Z,96382.47
2022-08-11T12:46:08.790Z,96390.41
2022-08-11T12:49:00.576Z,96387.41
2022-08-11T12:52:06.784Z,96386.69
2022-08-11T12:54:52.327Z,96385.53
2022-08-11T12:57:44.273Z,96381.50
2022-08-11T13:00:30.010Z,96385.56
2022-08-11T13:03:16.303Z,96381.28
2022-08-11T13:05:45.398Z,96372.19
2022-08-11T13:08:16.400Z,96366.13
2022-08-11T13:11:03.834Z,96360.97
2022-08-11T13:13:55.968Z,96346.25
2022-08-11T13:16:18.779Z,96351.84
2022-08-11T13:18:46.163Z,96338.84
2022-08-11T13:21:20.143Z,96337.56
2022-08-11T13:24:01.424Z,96338.84
2022-08-11T13:26:47.050Z,96325.94
2022-08-11T13:29:25.431Z,96317.41
2022-08-11T13:31:54.690Z,96315.41
2022-08-11T13:34:24.116Z,96312.13
2022-08-11T13:36:53.429Z,96300.94
2022-08-11T13:39:24.970Z,96294.53
2022-08-11T13:41:56.752Z,96297.88
2022-08-11T13:44:27.216Z,96299.31
2022-08-11T13:47:04.401Z,96296.00
2022-08-11T13:49:33.229Z,96291.28
2022-08-11T13:52:00.132Z,96292.94
2022-08-11T13:54:30.230Z,96293.59
2022-08-11T13:57:13.516Z,96289.84
2022-08-11T14:00:09.634Z,96283.22
2022-08-11T14:02:43.227Z,96287.34
2022-08-11T14:05:25.667Z,96297.88
2022-08-11T14:08:04.428Z,96291.53
2022-08-11T14:10:34.107Z,96296.00
2022-08-11T14:13:25.117Z,96289.28
2022-08-11T14:15:53.103Z,96297.53
2022-08-11T14:18:23.693Z,96285.69
2022-08-11T14:21:14.877Z,96285.84
2022-08-11T14:23:44.974Z,96272.50
2022-08-11T14:26:28.215Z,96271.19
2022-08-11T14:29:02.827Z,96273.13
2022-08-11T14:31:32.134Z,96268.50
2022-08-11T14:34:02.563Z,96264.06
2022-08-11T14:36:34.056Z,96266.03
2022-08-11T14:39:04.531Z,96260.78
2022-08-11T14:42:10.923Z,96270.63
2022-08-11T14:44:57.004Z,96263.88
2022-08-11T14:47:28.262Z,96257.31
2022-08-11T14:50:10.941Z,96260.34
2022-08-11T14:53:00.510Z,96257.22
2022-08-11T14:55:48.676Z,96254.06
2022-08-11T14:58:20.148Z,96264.91
2022-08-11T15:00:50.687Z,96262.25
2022-08-11T15:03:17.842Z,96265.78
2022-08-11T15:05:56.428Z,96268.25
2022-08-11T15:08:46.288Z,96267.41
2022-08-11T15:11:33.719Z,96271.94
2022-08-11T15:14:02.409Z,96268.47
2022-08-11T15:16:48.147Z,96266.66
2022-08-11T15:19:16.235Z,96267.22
2022-08-11T15:22:01.549Z,96262.88
2022-08-11T15:24:32.743Z,96265.56
2022-08-11T15:27:20.373Z,96258.13
2022-08-11T15:30:07.444Z,96257.09
2022-08-11T15:32:54.051Z,96259.81
2022-08-11T15:35:39.871Z,96259.06
2022-08-11T15:38:11.713Z,96256.66
2022-08-11T15:41:00.075Z,96252.81
2022-08-11T15:43:47.620Z,96247.97
2022-08-11T15:46:23.107Z,96249.06
2022-08-11T15:49:13.311Z,96238.31
2022-08-11T15:51:57.088Z,96233.97
2022-08-11T15:54:28.946Z,96236.63
2022-08-11T15:56:56.153Z,96236.25
2022-08-11T15:59:43.928Z,96240.19
2022-08-11T16:02:35.216Z,96239.81
2022-08-11T16:05:10.448Z,96234.66
2022-08-11T16:07:40.843Z,96225.84
2022-08-11T16:10:21.529Z,96223.47
2022-08-11T16:13:05.909Z,96218.38
2022-08-11T16:16:00.767Z,96217.38
2022-08-11T16:18:41.002Z,96215.25
2022-08-11T16:21:25.999Z,96214.44
2022-08-11T16:24:01.873Z,96211.78
2022-08-11T16:27:10.439Z,96222.81
2022-08-11T16:29:17.148Z,96229.28
2022-08-11T16:32:07.968Z,96225.00
2022-08-11T16:34:55.838Z,96229.13
2022-08-11T16:37:42.666Z,96223.75
2022-08-11T16:40:11.780Z,96225.88
2022-08-11T16:43:09.148Z,96228.50
2022-08-11T16:45:58.890Z,96225.31
2022-08-11T16:48:35.310Z,96225.25
2022-08-11T16:51:04.512Z,96222.88
2022-08-11T16:54:00.149Z,96228.50
2022-08-11T16:56:27.327Z,96233.50
2022-08-11T16:59:16.584Z,96235.59
2022-08-11T17:01:58.903Z,96240.63
2022-08-11T17:05:08.581Z,96229.91
2022-08-11T17:07:57.199Z,96224.63
2022-08-11T17:10:57.645Z,96227.28
2022-08-11T17:13:35.240Z,96234.75
2022-08-11T17:16:07.187Z,96239.50
2022-08-11T17:18:48.957Z,96237.00
2022-08-11T17:21:29.947Z,96233.47
2022-08-11T17:24:06.373Z,96225.50
2022-08-11T17:26:57.639Z,96230.53
2022-08-11T17:42:22.049Z,96256.63
2022-08-11T17:45:08.514Z,96250.28
2022-08-11T17:47:54.974Z,96253.22
2022-08-11T17:50:22.524Z,96263.09
2022-08-11T17:53:08.935Z,96265.19
2022-08-11T17:55:57.725Z,96271.56
2022-08-11T17:58:44.519Z,96269.81
2022-08-11T18:01:12.429Z,96271.50
2022-08-11T18:03:41.573Z,96266.56
2022-08-11T18:06:14.423Z,96265.91
2022-08-11T18:22:16.167Z,96275.25
2022-08-11T18:25:12.113Z,96280.69
2022-08-11T18:28:00.911Z,96269.75
2022-08-11T18:30:47.067Z,96277.88
2022-08-11T18:36:46.384Z,96272.63
2022-08-11T18:39:33.347Z,96269.84
2022-08-11T18:42:29.085Z,96266.69
2022-08-11T18:45:21.382Z,96273.97
2022-08-11T18:48:11.658Z,96278.34
2022-08-11T18:51:29.635Z,96287.56
2022-08-11T18:54:11.821Z,96282.25
2022-08-11T18:56:57.908Z,96282.16
2022-08-11T18:59:45.951Z,96277.41
2022-08-11T19:02:48.680Z,96276.16
2022-08-11T19:06:05.923Z,96282.63
2022-08-11T19:08:47.836Z,96279.75
2022-08-11T19:11:34.399Z,96290.78
2022-08-11T19:14:28.289Z,96287.41
2022-08-11T19:17:44.108Z,96285.47
2022-08-11T19:20:24.295Z,96287.69
2022-08-11T19:23:13.579Z,96280.63
2022-08-11T19:26:00.835Z,96284.78
2022-08-11T19:28:46.323Z,96281.09
2022-08-11T19:31:32.425Z,96280.72
2022-08-11T19:34:19.147Z,96275.03
2022-08-11T19:37:06.325Z,96274.69
2022-08-11T19:39:52.009Z,96278.75
2022-08-11T19:42:37.834Z,96280.72
2022-08-11T19:45:24.781Z,96272.59
2022-08-11T19:51:17.354Z,96274.78
2022-08-11T19:54:03.476Z,96277.09
2022-08-11T19:56:49.732Z,96276.28
2022-08-11T19:59:38.132Z,96282.19
2022-08-11T20:02:24.535Z,96283.31
2022-08-11T20:05:10.216Z,96287.81
2022-08-11T20:07:55.814Z,96282.59
2022-08-11T20:10:41.997Z,96272.84
2022-08-11T20:13:28.346Z,96273.25
2022-08-11T20:16:15.161Z,96279.28
2022-08-11T20:19:02.490Z,96274.41
2022-08-11T20:21:48.562Z,96281.69
2022-08-11T20:24:36.414Z,96272.88
2022-08-11T20:27:24.878Z,96272.75
2022-08-11T20:30:12.241Z,96285.94
2022-08-11T20:32:59.380Z,96280.25
2022-08-11T20:35:45.624Z,96285.41
2022-08-11T20:38:32.802Z,96287.34
2022-08-11T20:41:20.155Z,96289.50
2022-08-11T20:44:09.550Z,96293.31
2022-08-11T20:46:57.624Z,96292.09
2022-08-11T20:49:53.842Z,96287.22
2022-08-11T20:52:44.262Z,96286.94
2022-08-11T20:55:46.398Z,96292.34
2022-08-11T21:01:45.447Z,96295.38
2022-08-11T21:04:31.112Z,96289.25
2022-08-11T21:07:23.491Z,96300.28
2022-08-11T21:10:22.805Z,96293.53
2022-08-11T21:13:25.298Z,96286.81
2022-08-11T21:16:23.360Z,96300.91
2022-08-11T21:19:19.167Z,96303.97
2022-08-11T21:22:28.211Z,96312.41
2022-08-11T21:25:16.394Z,96307.50
2022-08-11T21:28:03.581Z,96316.16
2022-08-11T21:30:49.723Z,96306.47
2022-08-11T21:33:35.513Z,96313.44
2022-08-11T21:36:21.810Z,96303.34
2022-08-11T21:39:08.644Z,96307.50
2022-08-11T21:41:55.850Z,96312.47
2022-08-11T21:44:42.361Z,96314.31
2022-08-11T21:47:43.307Z,96315.13
2022-08-11T21:50:29.577Z,96313.47
2022-08-11T21:53:16.627Z,96314.75
2022-08-11T21:56:03.011Z,96316.00
2022-08-11T21:58:49.167Z,96317.72
2022-08-11T22:01:34.908Z,96318.13
2022-08-11T22:04:21.865Z,96316.94
2022-08-11T22:07:09.192Z,96315.31
2022-08-11T22:09:55.520Z,96317.81
2022-08-11T22:12:44.956Z,96308.66
2022-08-11T22:15:30.751Z,96309.06
2022-08-11T22:18:16.214Z,96312.63
2022-08-11T22:21:03.255Z,96302.41
2022-08-11T22:23:51.380Z,96300.00
2022-08-11T22:26:39.726Z,96297.97
2022-08-11T22:29:50.897Z,96295.53
2022-08-11T22:32:33.547Z,96303.34
2022-08-11T22:35:20.805Z,96292.16
2022-08-11T22:38:07.808Z,96294.88
2022-08-11T22:40:55.487Z,96299.81
2022-08-11T22:43:40.835Z,96291.22
2022-08-11T22:46:26.040Z,96299.03
2022-08-11T22:49:11.929Z,96296.38
2022-08-11T22:51:59.518Z,96295.81
2022-08-11T22:54:45.202Z,96294.59
2022-08-11T22:57:31.129Z,96303.63
2022-08-11T23:00:17.518Z,96304.22
2022-08-11T23:03:03.308Z,96298.72
2022-08-11T23:05:48.661Z,96299.16
2022-08-11T23:08:34.951Z,96287.75
2022-08-11T23:11:20.600Z,96289.16
2022-08-11T23:14:06.255Z,96281.66
2022-08-11T23:16:51.907Z,96284.34
2022-08-11T23:20:09.012Z,96280.88
2022-08-11T23:22:50.121Z,96279.06
2022-08-11T23:25:36.112Z,96286.44
2022-08-11T23:28:23.508Z,96286.44
2022-08-11T23:31:12.033Z,96277.69
2022-08-11T23:34:00.339Z,96277.50
2022-08-11T23:36:47.619Z,96278.13
2022-08-11T23:39:33.736Z,96267.31
2022-08-11T23:42:19.045Z,96268.53
2022-08-11T23:45:09.444Z,96266.31
2022-08-11T23:47:57.232Z,96266.31
2022-08-11T23:50:43.330Z,96257.13
2022-08-11T23:53:28.860Z,96257.13
2022-08-11T23:56:14.616Z,96258.72
2022-08-11T23:58:59.605Z,96258.91
